createdAt,value
2022-10-28T00:01:19.228Z,14.30
2022-10-28T00:03:51.850Z,14.30
2022-10-28T00:06:21.425Z,14.30
2022-10-28T00:08:48.464Z,14.40
2022-10-28T00:11:20.811Z,14.40
2022-10-28T00:13:48.079Z,14.40
2022-10-28T00:16:20.755Z,14.40
2022-10-28T00:18:48.269Z,14.40
2022-10-28T00:21:19.750Z,14.30
2022-10-28T00:23:47.106Z,14.40
2022-10-28T00:26:17.997Z,14.40
2022-10-28T00:29:00.528Z,14.40
2022-10-28T00:31:29.254Z,14.40
2022-10-28T00:33:58.222Z,14.40
2022-10-28T00:36:31.695Z,14.40
2022-10-28T00:38:59.153Z,14.40
2022-10-28T00:41:29.412Z,14.30
2022-10-28T00:44:41.419Z,14.30
2022-10-28T00:47:29.550Z,14.20
2022-10-28T00:50:03.296Z,14.20
2022-10-28T00:52:31.547Z,14.20
2022-10-28T00:55:01.575Z,14.20
2022-10-28T00:57:34.116Z,14.20
2022-10-28T01:00:03.721Z,14.20
2022-10-28T01:02:31.760Z,14.20
2022-10-28T01:04:59.029Z,14.20
2022-10-28T01:07:26.105Z,14.20
2022-10-28T01:09:53.243Z,14.20
2022-10-28T01:12:40.804Z,14.20
2022-10-28T01:15:30.682Z,14.10
2022-10-28T01:18:31.187Z,14.20
2022-10-28T01:21:06.885Z,14.10
2022-10-28T01:23:48.460Z,14.10
2022-10-28T01:26:33.817Z,14.10
2022-10-28T01:29:18.760Z,14.10
2022-10-28T01:31:51.970Z,14.10
2022-10-28T01:34:33.545Z,14.10
2022-10-28T01:37:33.389Z,14.10
2022-10-28T01:40:12.864Z,14.10
2022-10-28T01:42:50.733Z,14.10
2022-10-28T01:45:40.807Z,14.10
2022-10-28T01:48:31.236Z,14.10
2022-10-28T01:51:21.032Z,14.10
2022-10-28T01:53:51.561Z,14.20
2022-10-28T01:56:23.305Z,14.20
2022-10-28T01:58:52.322Z,14.20
2022-10-28T02:01:19.636Z,14.20
2022-10-28T02:03:47.859Z,14.20
2022-10-28T02:06:20.727Z,14.30
2022-10-28T02:08:53.429Z,14.30
2022-10-28T02:11:48.755Z,14.30
2022-10-28T02:14:49.766Z,14.30
2022-10-28T02:17:31.337Z,14.20
2022-10-28T02:20:32.819Z,14.20
2022-10-28T02:23:15.903Z,14.10
2022-10-28T02:26:06.229Z,14.00
2022-10-28T02:28:32.859Z,14.00
2022-10-28T02:31:10.162Z,14.00
2022-10-28T02:33:40.023Z,14.10
2022-10-28T02:36:16.295Z,14.00
2022-10-28T02:38:47.268Z,14.00
2022-10-28T02:41:43.478Z,14.10
2022-10-28T02:44:19.070Z,14.10
2022-10-28T02:46:49.921Z,14.10
2022-10-28T02:49:17.461Z,14.20
2022-10-28T02:51:54.656Z,14.20
2022-10-28T02:54:27.980Z,14.20
2022-10-28T02:57:06.091Z,14.20
2022-10-28T02:59:32.819Z,14.20
2022-10-28T03:01:59.694Z,14.30
2022-10-28T03:04:26.449Z,14.30
2022-10-28T03:06:53.225Z,14.30
2022-10-28T03:09:19.999Z,14.20
2022-10-28T03:11:46.674Z,14.20
2022-10-28T03:14:15.360Z,14.20
2022-10-28T03:16:43.151Z,14.20
2022-10-28T03:19:10.006Z,14.20
2022-10-28T03:21:36.711Z,14.10
2022-10-28T03:24:03.469Z,14.10
2022-10-28T03:26:30.652Z,14.20
2022-10-28T03:28:57.411Z,14.20
2022-10-28T03:31:24.260Z,14.20
2022-10-28T03:33:50.954Z,14.20
2022-10-28T03:36:17.672Z,14.10
2022-10-28T03:38:44.341Z,14.10
2022-10-28T03:41:11.015Z,14.10
2022-10-28T03:43:37.710Z,14.10
2022-10-28T03:46:04.516Z,14.20
2022-10-28T03:48:31.213Z,14.20
2022-10-28T03:50:57.899Z,14.20
2022-10-28T03:53:27.602Z,14.10
2022-10-28T03:55:58.054Z,14.10
2022-10-28T03:58:25.859Z,14.10
2022-10-28T04:00:54.085Z,14.10
2022-10-28T04:03:22.789Z,14.10
2022-10-28T04:05:50.013Z,14.10
2022-10-28T04:08:17.963Z,14.20
2022-10-28T04:10:47.501Z,14.10
2022-10-28T04:13:15.684Z,14.10
2022-10-28T04:15:42.730Z,14.10
2022-10-28T04:18:09.598Z,14.10
2022-10-28T04:20:36.689Z,14.10
2022-10-28T04:23:03.891Z,14.10
2022-10-28T04:25:30.773Z,14.10
2022-10-28T04:27:57.686Z,14.10
2022-10-28T04:30:24.693Z,14.10
2022-10-28T04:32:51.399Z,14.10
2022-10-28T04:35:18.338Z,14.10
2022-10-28T04:37:45.133Z,14.00
2022-10-28T04:40:12.333Z,14.10
2022-10-28T04:42:39.334Z,14.00
2022-10-28T04:45:06.885Z,14.00
2022-10-28T04:47:33.766Z,14.00
2022-10-28T04:50:00.617Z,13.90
2022-10-28T04:52:27.383Z,13.90
2022-10-28T04:54:54.366Z,13.80
2022-10-28T04:57:21.033Z,13.80
2022-10-28T04:59:47.838Z,13.80
2022-10-28T05:02:14.646Z,13.80
2022-10-28T05:04:41.371Z,13.80
2022-10-28T05:07:08.156Z,13.80
2022-10-28T05:09:34.883Z,13.80
2022-10-28T05:12:01.576Z,13.80
2022-10-28T05:14:28.293Z,13.80
2022-10-28T05:16:55.112Z,13.70
2022-10-28T05:19:21.995Z,13.70
2022-10-28T05:21:49.312Z,13.60
2022-10-28T05:24:16.116Z,13.50
2022-10-28T05:26:42.780Z,13.50
2022-10-28T05:29:10.080Z,13.50
2022-10-28T05:31:37.269Z,13.40
2022-10-28T05:34:04.035Z,13.50
2022-10-28T05:36:30.812Z,13.40
2022-10-28T05:38:57.755Z,13.40
2022-10-28T05:41:24.570Z,13.40
2022-10-28T05:43:51.902Z,13.50
2022-10-28T05:46:18.851Z,13.50
2022-10-28T05:48:45.644Z,13.50
2022-10-28T05:51:12.339Z,13.50
2022-10-28T05:53:41.444Z,13.50
2022-10-28T05:56:09.154Z,13.50
2022-10-28T05:58:36.113Z,13.50
2022-10-28T06:01:06.606Z,13.50
2022-10-28T06:03:33.284Z,13.50
2022-10-28T06:06:00.384Z,13.50
2022-10-28T06:08:27.711Z,13.50
2022-10-28T06:10:57.088Z,13.50
2022-10-28T06:13:24.145Z,13.30
2022-10-28T06:15:51.950Z,13.40
2022-10-28T06:18:19.090Z,13.40
2022-10-28T06:20:58.241Z,13.40
2022-10-28T06:23:27.115Z,13.50
2022-10-28T06:28:30.778Z,13.60
2022-10-28T06:31:06.142Z,13.50
2022-10-28T06:33:33.446Z,13.60
2022-10-28T06:36:00.365Z,13.70
2022-10-28T06:38:28.182Z,13.70
2022-10-28T06:41:00.537Z,13.80
2022-10-28T06:43:27.214Z,13.80
2022-10-28T06:45:55.608Z,13.80
2022-10-28T06:48:24.448Z,13.90
2022-10-28T06:50:51.347Z,13.90
2022-10-28T06:53:18.091Z,13.90
2022-10-28T06:55:51.566Z,13.90
2022-10-28T06:58:18.241Z,13.90
2022-10-28T07:00:48.088Z,14.00
2022-10-28T07:03:15.055Z,14.00
2022-10-28T07:05:42.024Z,14.10
2022-10-28T07:08:08.891Z,14.30
2022-10-28T07:10:35.738Z,14.20
2022-10-28T07:13:02.558Z,14.30
2022-10-28T07:15:29.262Z,14.30
2022-10-28T07:17:57.771Z,14.40
2022-10-28T07:20:26.549Z,14.40
2022-10-28T07:23:02.642Z,14.40
2022-10-28T07:25:31.113Z,14.50
2022-10-28T07:27:58.978Z,14.50
2022-10-28T07:30:26.654Z,14.50
2022-10-28T07:32:53.775Z,14.60
2022-10-28T07:35:21.226Z,14.60
2022-10-28T07:37:47.978Z,14.50
2022-10-28T07:40:14.922Z,14.60
2022-10-28T07:42:41.601Z,14.70
2022-10-28T07:45:09.387Z,14.70
2022-10-28T07:47:36.106Z,14.70
2022-10-28T07:50:04.588Z,14.60
2022-10-28T07:52:31.514Z,14.70
2022-10-28T07:54:58.232Z,14.60
2022-10-28T07:57:25.032Z,14.60
2022-10-28T07:59:52.097Z,14.60
2022-10-28T08:02:21.337Z,14.70
2022-10-28T08:04:48.394Z,14.70
2022-10-28T08:07:15.639Z,14.70
2022-10-28T08:09:42.580Z,14.80
2022-10-28T08:12:12.382Z,14.80
2022-10-28T08:14:39.349Z,14.80
2022-10-28T08:17:06.678Z,14.80
2022-10-28T08:19:34.479Z,14.80
2022-10-28T08:22:02.406Z,14.80
2022-10-28T08:24:29.335Z,14.90
2022-10-28T08:26:56.040Z,14.90
2022-10-28T08:29:26.383Z,15.00
2022-10-28T08:31:57.755Z,15.10
2022-10-28T08:34:29.670Z,15.20
2022-10-28T08:36:57.613Z,15.20
2022-10-28T08:39:24.586Z,15.20
2022-10-28T08:42:26.022Z,15.30
2022-10-28T08:45:11.922Z,15.30
2022-10-28T08:47:57.830Z,15.40
2022-10-28T08:50:31.837Z,15.50
2022-10-28T08:53:15.130Z,15.60
2022-10-28T08:55:46.861Z,15.70
2022-10-28T08:58:22.266Z,15.90
2022-10-28T09:00:54.758Z,15.90
2022-10-28T09:03:24.982Z,16.00
2022-10-28T09:06:02.043Z,16.10
2022-10-28T09:08:31.502Z,16.20
2022-10-28T09:11:01.322Z,16.30
2022-10-28T09:14:15.378Z,16.30
2022-10-28T09:16:49.137Z,16.40
2022-10-28T09:19:39.171Z,16.50
2022-10-28T09:22:47.853Z,16.60
2022-10-28T09:25:46.431Z,16.50
2022-10-28T09:28:29.455Z,16.60
2022-10-28T09:31:26.795Z,16.60
2022-10-28T09:34:07.804Z,16.70
2022-10-28T09:36:38.800Z,16.60
2022-10-28T09:39:09.584Z,16.50
2022-10-28T09:41:42.079Z,16.50
2022-10-28T09:44:24.129Z,16.60
2022-10-28T09:46:57.754Z,16.70
2022-10-28T09:49:31.323Z,16.70
2022-10-28T09:52:23.509Z,16.80
2022-10-28T09:54:52.511Z,16.90
2022-10-28T09:57:20.620Z,17.00
2022-10-28T09:59:47.611Z,17.10
2022-10-28T10:02:28.084Z,17.10
2022-10-28T10:05:00.390Z,17.10
2022-10-28T10:07:40.685Z,17.30
2022-10-28T10:10:22.450Z,17.30
2022-10-28T10:12:52.516Z,17.40
2022-10-28T10:15:43.511Z,17.40
2022-10-28T10:18:20.347Z,17.40
2022-10-28T10:20:48.529Z,17.30
2022-10-28T10:23:24.442Z,17.30
2022-10-28T10:25:57.154Z,17.40
2022-10-28T10:28:25.238Z,17.50
2022-10-28T10:30:55.613Z,17.40
2022-10-28T10:33:30.903Z,17.60
2022-10-28T10:36:09.597Z,17.80
2022-10-28T10:38:37.376Z,18.00
2022-10-28T10:41:04.737Z,18.10
2022-10-28T10:43:35.974Z,18.20
2022-10-28T10:46:16.351Z,18.20
2022-10-28T10:48:44.808Z,18.20
2022-10-28T10:51:25.965Z,18.10
2022-10-28T10:53:57.054Z,18.20
2022-10-28T10:56:26.418Z,18.20
2022-10-28T10:58:56.055Z,18.10
2022-10-28T11:01:28.009Z,18.30
2022-10-28T11:03:59.701Z,18.40
2022-10-28T11:06:30.294Z,18.50
2022-10-28T11:09:02.628Z,18.50
2022-10-28T11:11:47.584Z,18.50
2022-10-28T11:14:14.212Z,18.50
2022-10-28T11:16:54.852Z,18.50
2022-10-28T11:19:33.110Z,18.60
2022-10-28T11:22:14.432Z,18.70
2022-10-28T11:25:09.639Z,18.60
2022-10-28T11:28:01.516Z,18.70
2022-10-28T11:30:54.070Z,18.80
2022-10-28T11:33:53.177Z,18.80
2022-10-28T11:36:34.153Z,18.90
2022-10-28T11:39:45.687Z,18.90
2022-10-28T11:42:20.565Z,19.00
2022-10-28T11:44:55.396Z,19.10
2022-10-28T11:47:25.253Z,19.30
2022-10-28T11:50:12.871Z,19.40
2022-10-28T11:53:18.108Z,19.30
2022-10-28T11:56:10.562Z,19.30
2022-10-28T11:58:55.515Z,19.40
2022-10-28T12:01:44.970Z,19.40
2022-10-28T12:04:14.543Z,19.50
2022-10-28T12:07:24.966Z,19.60
2022-10-28T12:10:06.577Z,19.60
2022-10-28T12:12:51.292Z,19.70
2022-10-28T12:15:21.803Z,19.70
2022-10-28T12:18:00.376Z,19.70
2022-10-28T12:20:34.542Z,19.60
2022-10-28T12:23:06.756Z,19.60
2022-10-28T12:25:36.582Z,19.70
2022-10-28T12:28:13.483Z,19.80
2022-10-28T12:30:42.830Z,19.90
2022-10-28T12:33:29.568Z,20.00
2022-10-28T12:36:39.812Z,20.00
2022-10-28T12:39:37.064Z,20.10
2022-10-28T12:42:16.456Z,20.10
2022-10-28T12:44:44.328Z,20.10
2022-10-28T12:47:16.728Z,20.20
2022-10-28T12:50:08.257Z,20.20
2022-10-28T12:53:03.977Z,20.30
2022-10-28T12:55:41.965Z,20.40
2022-10-28T12:58:32.838Z,20.40
2022-10-28T13:01:13.605Z,20.60
2022-10-28T13:03:41.225Z,20.80
2022-10-28T13:06:24.992Z,20.90
2022-10-28T13:08:57.450Z,21.10
2022-10-28T13:11:58.539Z,21.20
2022-10-28T13:14:54.162Z,21.20
2022-10-28T13:17:24.108Z,21.50
2022-10-28T13:20:28.189Z,21.60
2022-10-28T13:23:05.948Z,21.60
2022-10-28T13:25:54.338Z,21.70
2022-10-28T13:28:22.706Z,21.70
2022-10-28T13:31:05.911Z,21.90
2022-10-28T13:33:36.141Z,21.90
2022-10-28T13:36:17.453Z,21.90
2022-10-28T13:38:51.151Z,22.00
2022-10-28T13:41:43.540Z,22.10
2022-10-28T13:44:18.835Z,22.10
2022-10-28T13:47:16.631Z,22.10
2022-10-28T13:50:08.659Z,22.10
2022-10-28T13:52:41.012Z,22.20
2022-10-28T13:55:39.571Z,22.20
2022-10-28T13:58:24.356Z,22.20
2022-10-28T14:00:53.598Z,22.20
2022-10-28T14:03:27.574Z,22.20
2022-10-28T14:05:57.535Z,22.20
2022-10-28T14:08:29.439Z,22.40
2022-10-28T14:11:05.452Z,22.30
2022-10-28T14:13:36.914Z,22.40
2022-10-28T14:16:25.618Z,22.50
2022-10-28T14:19:10.442Z,22.60
2022-10-28T14:21:44.190Z,22.70
2022-10-28T14:24:31.844Z,22.70
2022-10-28T14:27:18.110Z,22.70
2022-10-28T14:29:49.272Z,22.70
2022-10-28T14:32:41.539Z,22.60
2022-10-28T14:35:12.877Z,22.70
2022-10-28T14:37:55.607Z,22.70
2022-10-28T14:40:59.448Z,22.70
2022-10-28T14:43:47.833Z,22.70
2022-10-28T14:46:23.350Z,22.60
2022-10-28T14:48:54.962Z,22.60
2022-10-28T14:51:36.307Z,22.50
2022-10-28T14:54:09.927Z,22.50
2022-10-28T14:56:37.402Z,22.40
2022-10-28T14:59:27.341Z,22.30
2022-10-28T15:02:02.457Z,22.20
2022-10-28T15:04:30.009Z,22.20
2022-10-28T15:06:57.326Z,22.20
2022-10-28T15:09:32.797Z,22.20
2022-10-28T15:12:06.278Z,22.10
2022-10-28T15:14:39.697Z,21.90
2022-10-28T15:17:19.127Z,21.90
2022-10-28T15:19:47.990Z,21.80
2022-10-28T15:22:19.195Z,21.70
2022-10-28T15:25:04.487Z,21.60
2022-10-28T15:27:33.397Z,21.50
2022-10-28T15:30:00.475Z,21.40
2022-10-28T15:32:30.406Z,21.40
2022-10-28T15:34:57.577Z,21.30
2022-10-28T15:37:30.728Z,21.20
2022-10-28T15:40:16.770Z,21.10
2022-10-28T15:42:58.422Z,21.10
2022-10-28T15:45:27.851Z,20.90
2022-10-28T15:47:57.835Z,20.60
2022-10-28T15:50:37.172Z,20.50
2022-10-28T15:53:09.709Z,20.40
2022-10-28T15:58:40.039Z,20.10
2022-10-28T16:01:30.226Z,19.90
2022-10-28T16:03:57.504Z,19.80
2022-10-28T16:06:33.640Z,19.80
2022-10-28T16:09:09.474Z,19.60
2022-10-28T16:11:41.269Z,19.40
2022-10-28T16:14:39.815Z,19.40
2022-10-28T16:17:23.136Z,19.30
2022-10-28T16:19:53.218Z,19.20
2022-10-28T16:22:21.319Z,19.00
2022-10-28T16:24:53.146Z,19.00
2022-10-28T16:27:19.933Z,19.00
2022-10-28T16:29:47.263Z,18.80
2022-10-28T16:32:16.015Z,18.70
2022-10-28T16:34:42.797Z,18.60
2022-10-28T16:37:22.733Z,18.60
2022-10-28T16:39:52.399Z,18.50
2022-10-28T16:42:20.607Z,18.50
2022-10-28T16:44:47.923Z,18.50
2022-10-28T16:47:20.345Z,18.50
2022-10-28T16:49:54.249Z,18.40
2022-10-28T16:52:27.568Z,18.40
2022-10-28T16:54:54.413Z,18.20
2022-10-28T16:57:21.611Z,18.20
2022-10-28T16:59:48.648Z,18.10
2022-10-28T17:02:20.166Z,18.00
2022-10-28T17:04:47.216Z,17.90
2022-10-28T17:07:16.319Z,17.80
2022-10-28T17:09:43.586Z,17.70
2022-10-28T17:12:22.806Z,17.60
2022-10-28T17:14:50.459Z,17.50
2022-10-28T17:17:17.428Z,17.40
2022-10-28T17:19:45.687Z,17.50
2022-10-28T17:22:12.917Z,17.40
2022-10-28T17:24:40.102Z,17.30
2022-10-28T17:27:07.601Z,17.30
2022-10-28T17:29:34.616Z,17.20
2022-10-28T17:32:02.316Z,17.20
2022-10-28T17:34:29.551Z,17.10
2022-10-28T17:36:56.297Z,17.00
2022-10-28T17:39:26.129Z,17.00
2022-10-28T17:41:54.237Z,16.90
2022-10-28T17:44:20.940Z,16.90
2022-10-28T17:46:51.423Z,16.90
2022-10-28T17:49:18.566Z,16.80
2022-10-28T17:51:45.414Z,16.70
2022-10-28T17:54:12.223Z,16.70
2022-10-28T17:56:41.761Z,16.70
2022-10-28T17:59:08.683Z,16.70
2022-10-28T18:01:35.709Z,16.60
2022-10-28T18:04:03.657Z,16.50
2022-10-28T18:06:30.396Z,16.50
2022-10-28T18:08:58.200Z,16.50
2022-10-28T18:11:26.463Z,16.50
2022-10-28T18:13:55.172Z,16.40
2022-10-28T18:16:24.366Z,16.40
2022-10-28T18:18:51.533Z,16.30
2022-10-28T18:21:21.156Z,16.30
2022-10-28T18:23:52.616Z,16.30
2022-10-28T18:26:19.898Z,16.10
2022-10-28T18:28:47.042Z,16.00
2022-10-28T18:31:16.453Z,16.00
2022-10-28T18:33:44.233Z,16.00
2022-10-28T18:36:16.826Z,15.90
2022-10-28T18:38:43.960Z,15.90
2022-10-28T18:41:12.529Z,15.90
2022-10-28T18:43:39.833Z,15.90
2022-10-28T18:46:07.415Z,15.90
2022-10-28T18:48:34.644Z,15.90
2022-10-28T18:51:09.394Z,15.90
2022-10-28T18:53:37.872Z,15.90
2022-10-28T18:56:12.788Z,15.90
2022-10-28T18:58:39.826Z,15.80
2022-10-28T19:01:14.957Z,15.80
2022-10-28T19:03:43.293Z,15.80
2022-10-28T19:06:15.506Z,15.90
2022-10-28T19:08:43.009Z,15.80
2022-10-28T19:11:11.735Z,15.80
2022-10-28T19:13:40.740Z,15.80
2022-10-28T19:16:08.741Z,15.80
2022-10-28T19:18:38.106Z,15.80
2022-10-28T19:21:08.173Z,15.70
2022-10-28T19:23:34.937Z,15.70
2022-10-28T19:26:01.714Z,15.60
2022-10-28T19:28:28.567Z,15.60
2022-10-28T19:31:06.455Z,15.60
2022-10-28T19:33:33.477Z,15.50
2022-10-28T19:36:02.271Z,15.50
2022-10-28T19:38:33.935Z,15.50
2022-10-28T19:41:09.513Z,15.50
2022-10-28T19:43:37.143Z,15.40
2022-10-28T19:46:15.298Z,15.40
2022-10-28T19:48:44.930Z,15.30
2022-10-28T19:51:17.344Z,15.30
2022-10-28T19:53:52.515Z,15.30
2022-10-28T19:56:20.521Z,15.20
2022-10-28T19:58:51.308Z,15.20
2022-10-28T20:01:19.520Z,15.20
2022-10-28T20:03:49.215Z,15.10
2022-10-28T20:06:17.702Z,15.10
2022-10-28T20:08:46.448Z,15.10
2022-10-28T20:11:15.601Z,15.00
2022-10-28T20:13:43.181Z,15.10
2022-10-28T20:16:12.554Z,15.00
2022-10-28T20:18:39.999Z,15.00
2022-10-28T20:21:18.040Z,15.00
2022-10-28T20:23:47.318Z,15.00
2022-10-28T20:26:14.095Z,14.90
2022-10-28T20:28:40.886Z,15.00
2022-10-28T20:31:08.769Z,14.90
2022-10-28T20:33:40.867Z,14.90
2022-10-28T20:36:24.448Z,14.90
2022-10-28T20:39:02.161Z,14.90
2022-10-28T20:41:32.045Z,14.80
2022-10-28T20:43:59.398Z,14.80
2022-10-28T20:46:26.898Z,14.70
2022-10-28T20:48:54.308Z,14.70
2022-10-28T20:51:22.002Z,14.60
2022-10-28T20:53:49.207Z,14.50
2022-10-28T20:56:18.274Z,14.60
2022-10-28T20:58:45.381Z,14.60
2022-10-28T21:01:18.307Z,14.50
2022-10-28T21:03:46.113Z,14.50
2022-10-28T21:06:15.404Z,14.50
2022-10-28T21:08:43.224Z,14.40
2022-10-28T21:11:13.444Z,14.40
2022-10-28T21:13:40.674Z,14.40
2022-10-28T21:16:09.673Z,14.40
2022-10-28T21:18:37.561Z,14.30
2022-10-28T21:21:05.228Z,14.40
2022-10-28T21:23:32.553Z,14.30
2022-10-28T21:26:01.950Z,14.30
2022-10-28T21:28:30.551Z,14.30
2022-10-28T21:31:01.796Z,14.30
2022-10-28T21:33:29.256Z,14.30
2022-10-28T21:35:57.934Z,14.30
2022-10-28T21:38:25.810Z,14.30
2022-10-28T21:41:13.086Z,14.30
2022-10-28T21:43:41.926Z,14.30
2022-10-28T21:46:09.462Z,14.20
2022-10-28T21:48:37.480Z,14.20
2022-10-28T21:51:10.159Z,14.20
2022-10-28T21:53:42.495Z,14.10
2022-10-28T21:56:19.126Z,14.00
2022-10-28T21:58:48.016Z,14.00
2022-10-28T22:01:23.811Z,13.90
2022-10-28T22:03:52.148Z,13.90
2022-10-28T22:06:18.871Z,13.90
2022-10-28T22:08:46.699Z,13.90
2022-10-28T22:11:16.438Z,13.90
2022-10-28T22:13:43.227Z,13.80
2022-10-28T22:16:15.344Z,13.80
2022-10-28T22:18:42.694Z,13.80
2022-10-28T22:21:18.303Z,13.80
2022-10-28T22:23:45.562Z,13.70
2022-10-28T22:26:18.096Z,13.70
2022-10-28T22:28:45.486Z,13.70
2022-10-28T22:31:14.582Z,13.70
2022-10-28T22:33:41.828Z,13.60
2022-10-28T22:36:14.324Z,13.60
2022-10-28T22:38:42.861Z,13.60
2022-10-28T22:41:19.903Z,13.60
2022-10-28T22:43:50.431Z,13.60
2022-10-28T22:46:18.206Z,13.60
2022-10-28T22:48:46.017Z,13.60
2022-10-28T22:51:13.825Z,13.60
2022-10-28T22:53:41.132Z,13.50
2022-10-28T22:56:11.351Z,13.40
2022-10-28T22:58:38.017Z,13.50
2022-10-28T23:01:10.024Z,13.50
2022-10-28T23:03:42.550Z,13.50
2022-10-28T23:06:10.941Z,13.50
2022-10-28T23:08:39.248Z,13.50
2022-10-28T23:11:07.250Z,13.50
2022-10-28T23:13:34.769Z,13.50
2022-10-28T23:16:04.906Z,13.50
2022-10-28T23:18:32.908Z,13.50
2022-10-28T23:21:15.455Z,13.50
2022-10-28T23:23:43.180Z,13.60
2022-10-28T23:26:11.700Z,13.60
2022-10-28T23:28:38.811Z,13.50
2022-10-28T23:31:06.485Z,13.50
2022-10-28T23:33:34.842Z,13.50
2022-10-28T23:36:06.029Z,13.50
2022-10-28T23:38:33.237Z,13.50
2022-10-28T23:41:02.262Z,13.50
2022-10-28T23:43:30.476Z,13.50
2022-10-28T23:45:58.117Z,13.50
2022-10-28T23:48:26.532Z,13.50
2022-10-28T23:50:53.297Z,13.50
2022-10-28T23:53:20.837Z,13.50
2022-10-28T23:55:49.418Z,13.50
2022-10-28T23:58:17.596Z,13.50
